Time;durP1;ratioP1;P1;durP2;ratioP2;P2;SDS_P1;SDS_P2;PMS_P1;PMS_P2;Temp;Humidity;BMP_temperature;BMP_pressure;BME280_temperature;BME280_humidity;BME280_pressure;Samples;Min_cycle;Max_cycle;Signal;HPM_P1;HPM_P2
2023/06/16 02:00:21;;;;;;;19.37;8.80;;;;;;;;;;5151460;27;20173;-79
2023/06/16 02:03:02;;;;;;;20.35;9.35;;;;;;;;;;4309069;33;20060;-80
2023/06/16 02:05:30;;;;;;;19.65;9.65;;;;;;;;;;4310020;33;20053;-81
2023/06/16 02:07:58;;;;;;;15.77;8.80;;;;;;;;;;4311507;33;20049;-81
2023/06/16 02:10:24;;;;;;;17.90;9.23;;;;;;;;;;4311322;33;20048;-82
2023/06/16 02:12:51;;;;;;;17.83;9.60;;;;;;;;;;4309180;33;20040;-78
2023/06/16 02:15:18;;;;;;;14.25;8.85;;;;;;;;;;4311225;33;20078;-80
2023/06/16 02:17:44;;;;;;;14.55;9.32;;;;;;;;;;4279858;33;20447;-81
2023/06/16 02:20:11;;;;;;;12.18;9.40;;;;;;;;;;4279955;33;20071;-81
2023/06/16 02:22:38;;;;;;;13.98;9.80;;;;;;;;;;4280127;33;20067;-80
2023/06/16 02:25:04;;;;;;;13.48;9.70;;;;;;;;;;4277866;33;20042;-79
2023/06/16 02:27:37;;;;;;;13.80;9.63;;;;;;;;;;4278502;33;20057;-79
2023/06/16 02:30:03;;;;;;;16.45;9.63;;;;;;;;;;4290050;33;20147;-81
2023/06/16 02:32:30;;;;;;;21.65;10.85;;;;;;;;;;4265353;33;20061;-80
2023/06/16 02:34:58;;;;;;;20.92;12.90;;;;;;;;;;4265185;33;20055;-83
2023/06/16 02:37:27;;;;;;;22.30;13.75;;;;;;;;;;4263300;33;20996;-80
2023/06/16 02:39:54;;;;;;;17.77;13.27;;;;;;;;;;4265049;33;20037;-80
2023/06/16 02:42:21;;;;;;;20.25;11.32;;;;;;;;;;4264956;33;20071;-80
2023/06/16 02:44:47;;;;;;;17.25;11.00;;;;;;;;;;4264805;33;20080;-80
2023/06/16 02:47:13;;;;;;;14.60;10.95;;;;;;;;;;4264602;33;20064;-77
2023/06/16 02:49:42;;;;;;;16.27;11.00;;;;;;;;;;4263252;33;20045;-78
2023/06/16 02:52:10;;;;;;;14.07;10.60;;;;;;;;;;4263571;33;20063;-79
2023/06/16 02:54:37;;;;;;;15.45;9.48;;;;;;;;;;4264703;33;20038;-78
2023/06/16 02:57:05;;;;;;;15.02;10.50;;;;;;;;;;4263525;33;20050;-78
2023/06/16 02:59:33;;;;;;;12.63;9.85;;;;;;;;;;4262467;33;20063;-79
2023/06/16 03:01:59;;;;;;;15.50;9.55;;;;;;;;;;4263468;33;20058;-79
2023/06/16 03:04:27;;;;;;;16.52;11.15;;;;;;;;;;4277084;33;20112;-80
2023/06/16 03:06:57;;;;;;;17.85;11.98;;;;;;;;;;4277890;33;20073;-80
2023/06/16 03:09:26;;;;;;;25.77;12.90;;;;;;;;;;4275896;33;20102;-79
2023/06/16 03:11:53;;;;;;;19.55;13.00;;;;;;;;;;4279358;33;20073;-79
2023/06/16 03:14:22;;;;;;;20.25;13.75;;;;;;;;;;4279125;33;20052;-79
2023/06/16 03:16:50;;;;;;;16.85;12.23;;;;;;;;;;4261544;33;20037;-78
2023/06/16 03:19:19;;;;;;;18.83;12.88;;;;;;;;;;4254762;33;20440;-78
2023/06/16 03:21:48;;;;;;;18.17;10.35;;;;;;;;;;4264515;33;20045;-79
2023/06/16 03:24:16;;;;;;;21.60;11.30;;;;;;;;;;4237382;33;20024;-78
2023/06/16 03:26:44;;;;;;;15.38;10.85;;;;;;;;;;4226937;33;20102;-79
2023/06/16 03:29:12;;;;;;;14.30;10.85;;;;;;;;;;4222578;34;20030;-79
2023/06/16 03:31:39;;;;;;;22.77;10.55;;;;;;;;;;4221582;33;20039;-78
2023/06/16 03:34:11;;;;;;;17.62;10.50;;;;;;;;;;4236282;33;20115;-79
2023/06/16 03:36:39;;;;;;;15.18;11.55;;;;;;;;;;4235066;33;20355;-78
2023/06/16 03:39:05;;;;;;;13.85;10.38;;;;;;;;;;4243375;33;20498;-79
2023/06/16 03:41:32;;;;;;;16.95;10.95;;;;;;;;;;4263404;33;20033;-79
2023/06/16 03:43:58;;;;;;;19.70;12.98;;;;;;;;;;4264526;33;20532;-79
2023/06/16 03:46:26;;;;;;;20.60;11.40;;;;;;;;;;4265470;33;20062;-81
2023/06/16 03:48:52;;;;;;;17.50;11.73;;;;;;;;;;4277535;33;20055;-80
2023/06/16 03:51:19;;;;;;;18.65;11.88;;;;;;;;;;4281670;33;20067;-78
2023/06/16 03:53:46;;;;;;;21.27;14.00;;;;;;;;;;4293275;33;20790;-80
2023/06/16 03:56:12;;;;;;;22.98;12.55;;;;;;;;;;4307797;33;20033;-80
2023/06/16 03:58:38;;;;;;;16.73;12.45;;;;;;;;;;4310200;33;20066;-79
2023/06/16 04:01:06;;;;;;;19.75;13.32;;;;;;;;;;4307158;33;20052;-78
2023/06/16 04:03:33;;;;;;;18.87;12.18;;;;;;;;;;4310300;33;20161;-78
2023/06/16 04:06:00;;;;;;;17.77;12.90;;;;;;;;;;4309785;33;20075;-79
2023/06/16 04:08:27;;;;;;;24.40;14.52;;;;;;;;;;4308432;33;20045;-78
2023/06/16 04:10:57;;;;;;;22.80;15.23;;;;;;;;;;4307882;33;20404;-79
2023/06/16 04:13:26;;;;;;;30.15;15.75;;;;;;;;;;4293311;33;20077;-79
2023/06/16 04:15:53;;;;;;;30.73;15.27;;;;;;;;;;4276925;33;20105;-79
2023/06/16 04:18:19;;;;;;;25.27;14.20;;;;;;;;;;4278789;33;20041;-79
2023/06/16 04:20:46;;;;;;;25.77;15.25;;;;;;;;;;4276102;33;20114;-78
2023/06/16 04:23:11;;;;;;;17.65;13.98;;;;;;;;;;4280246;33;20279;-79
2023/06/16 04:25:38;;;;;;;26.00;14.93;;;;;;;;;;4281207;33;20421;-79
2023/06/16 04:28:05;;;;;;;30.65;14.55;;;;;;;;;;4281228;33;20039;-79
2023/06/16 04:30:33;;;;;;;27.37;14.68;;;;;;;;;;4280738;33;20045;-79
2023/06/16 04:33:01;;;;;;;27.25;16.12;;;;;;;;;;4279173;33;20103;-80
2023/06/16 04:35:34;;;;;;;24.17;15.25;;;;;;;;;;4252460;33;20431;-78
2023/06/16 04:38:01;;;;;;;32.58;16.20;;;;;;;;;;4252502;33;20076;-79
2023/06/16 04:43:00;;;;;;;33.30;15.35;;;;;;;;;;4251034;33;20026;-80
2023/06/16 04:45:27;;;;;;;29.02;14.32;;;;;;;;;;4251829;33;20912;-78
2023/06/16 04:47:53;;;;;;;28.67;13.93;;;;;;;;;;4291443;33;20070;-80
2023/06/16 04:50:20;;;;;;;20.00;13.98;;;;;;;;;;4294346;33;20048;-80
2023/06/16 04:52:47;;;;;;;25.05;14.20;;;;;;;;;;4306804;33;20033;-78
2023/06/16 04:55:16;;;;;;;20.42;13.20;;;;;;;;;;4299412;33;20073;-78
2023/06/16 04:57:43;;;;;;;26.98;14.00;;;;;;;;;;4296733;33;20558;-77
2023/06/16 05:00:10;;;;;;;19.12;12.30;;;;;;;;;;4295334;33;20065;-78
2023/06/16 05:02:37;;;;;;;28.08;14.48;;;;;;;;;;4292521;33;20049;-78
2023/06/16 05:05:03;;;;;;;25.25;12.15;;;;;;;;;;4291076;33;20084;-79
2023/06/16 05:07:30;;;;;;;21.48;12.63;;;;;;;;;;4293619;33;20233;-78
2023/06/16 05:09:56;;;;;;;20.77;10.90;;;;;;;;;;4281787;33;20037;-79
2023/06/16 05:12:24;;;;;;;27.45;11.95;;;;;;;;;;4292601;33;20469;-79
2023/06/16 05:14:50;;;;;;;18.20;11.80;;;;;;;;;;4283259;33;20045;-79
2023/06/16 05:17:16;;;;;;;13.98;10.48;;;;;;;;;;4280608;33;20550;-78
2023/06/16 05:19:43;;;;;;;17.23;10.93;;;;;;;;;;4280004;33;20796;-79
2023/06/16 05:22:09;;;;;;;18.10;10.98;;;;;;;;;;4256666;33;20060;-79
2023/06/16 05:24:36;;;;;;;16.85;10.82;;;;;;;;;;4254547;33;20637;-80
2023/06/16 05:27:03;;;;;;;13.55;10.07;;;;;;;;;;4249791;33;20049;-79
2023/06/16 05:29:29;;;;;;;14.20;10.95;;;;;;;;;;4250735;33;20114;-79
2023/06/16 05:31:55;;;;;;;15.95;10.88;;;;;;;;;;4254685;33;20068;-79
2023/06/16 05:34:22;;;;;;;17.98;9.75;;;;;;;;;;4248712;33;20051;-79
2023/06/16 05:36:49;;;;;;;27.00;10.60;;;;;;;;;;4247294;33;20469;-79
2023/06/16 05:39:16;;;;;;;29.05;11.77;;;;;;;;;;4258002;33;20067;-78
2023/06/16 05:41:44;;;;;;;16.98;10.25;;;;;;;;;;4262872;33;20062;-77
2023/06/16 05:44:12;;;;;;;20.33;9.30;;;;;;;;;;4263544;33;20073;-78
2023/06/16 05:46:38;;;;;;;13.30;9.27;;;;;;;;;;4260833;33;20041;-77
2023/06/16 05:49:04;;;;;;;12.25;9.95;;;;;;;;;;4252032;33;20120;-79
2023/06/16 05:51:31;;;;;;;22.67;10.05;;;;;;;;;;4249145;33;20974;-79
2023/06/16 05:53:57;;;;;;;27.13;10.40;;;;;;;;;;4273676;33;20207;-79
2023/06/16 05:56:24;;;;;;;19.23;10.20;;;;;;;;;;4270251;33;20078;-80
2023/06/16 05:58:50;;;;;;;13.45;8.95;;;;;;;;;;4266761;33;20049;-81
2023/06/16 06:01:17;;;;;;;15.70;9.93;;;;;;;;;;4246266;33;20221;-79
2023/06/16 06:03:45;;;;;;;11.38;8.48;;;;;;;;;;4248428;33;20136;-79
2023/06/16 06:06:12;;;;;;;12.90;7.82;;;;;;;;;;4247591;33;20124;-81
2023/06/16 06:08:38;;;;;;;17.48;7.15;;;;;;;;;;4248272;33;20160;-83
2023/06/16 06:11:08;;;;;;;10.00;6.28;;;;;;;;;;4248285;33;20062;-81
2023/06/16 06:13:34;;;;;;;9.55;7.53;;;;;;;;;;4247091;33;20042;-79
2023/06/16 06:16:01;;;;;;;11.98;7.62;;;;;;;;;;4250563;33;20184;-81
2023/06/16 06:18:28;;;;;;;9.73;6.75;;;;;;;;;;4253142;33;20518;-80
2023/06/16 06:20:55;;;;;;;9.48;6.28;;;;;;;;;;4259471;33;20056;-83
2023/06/16 06:23:21;;;;;;;16.85;6.30;;;;;;;;;;4271493;33;20064;-81
2023/06/16 06:25:47;;;;;;;12.05;5.82;;;;;;;;;;4262506;33;20127;-80
2023/06/16 06:28:14;;;;;;;8.73;5.65;;;;;;;;;;4276586;33;20067;-80
2023/06/16 06:30:40;;;;;;;9.52;6.53;;;;;;;;;;4279041;33;20045;-82
2023/06/16 06:33:07;;;;;;;9.32;4.85;;;;;;;;;;4266937;33;20125;-84
2023/06/16 06:35:34;;;;;;;9.63;5.80;;;;;;;;;;4281295;33;20074;-84
2023/06/16 06:38:01;;;;;;;7.43;5.47;;;;;;;;;;4277058;33;20044;-81
2023/06/16 06:40:27;;;;;;;7.28;5.50;;;;;;;;;;4278942;33;20937;-80
2023/06/16 06:42:54;;;;;;;11.32;8.13;;;;;;;;;;4279196;33;20351;-80
2023/06/16 06:45:22;;;;;;;6.12;5.20;;;;;;;;;;4278429;33;20096;-79
2023/06/16 06:47:49;;;;;;;8.90;5.18;;;;;;;;;;4277216;33;20033;-80
2023/06/16 06:50:15;;;;;;;8.00;5.80;;;;;;;;;;4270172;33;20085;-79
2023/06/16 06:52:41;;;;;;;13.98;5.55;;;;;;;;;;4273178;33;20041;-82
2023/06/16 06:55:08;;;;;;;11.40;5.78;;;;;;;;;;4286430;33;20119;-81
2023/06/16 06:57:34;;;;;;;7.47;4.70;;;;;;;;;;4269122;33;20042;-80
2023/06/16 07:00:00;;;;;;;6.00;4.72;;;;;;;;;;4275875;33;20175;-81
2023/06/16 07:02:26;;;;;;;6.87;5.18;;;;;;;;;;4274698;33;20079;-82
2023/06/16 07:04:53;;;;;;;12.07;4.75;;;;;;;;;;4257642;33;20085;-80
2023/06/16 07:07:19;;;;;;;7.93;5.03;;;;;;;;;;4275293;33;20083;-78
2023/06/16 07:09:45;;;;;;;6.45;4.10;;;;;;;;;;4263698;33;20066;-78
2023/06/16 07:12:11;;;;;;;5.12;4.43;;;;;;;;;;4272567;33;20033;-80
2023/06/16 07:14:37;;;;;;;9.00;4.25;;;;;;;;;;4255312;33;20045;-78
2023/06/16 07:17:04;;;;;;;9.35;4.62;;;;;;;;;;4250278;33;20079;-80
2023/06/16 07:19:30;;;;;;;5.20;4.68;;;;;;;;;;4257895;33;20057;-83
2023/06/16 07:21:57;;;;;;;7.53;4.32;;;;;;;;;;4271298;33;20067;-82
2023/06/16 07:24:23;;;;;;;5.03;4.53;;;;;;;;;;4274167;33;20079;-79
2023/06/16 07:26:49;;;;;;;5.68;4.22;;;;;;;;;;4275262;33;20109;-80
2023/06/16 07:29:16;;;;;;;11.93;3.87;;;;;;;;;;4285524;33;20042;-84
2023/06/16 07:31:42;;;;;;;6.80;4.15;;;;;;;;;;4284504;33;20082;-82
2023/06/16 07:34:08;;;;;;;6.03;4.65;;;;;;;;;;4293259;33;20064;-80
2023/06/16 07:36:34;;;;;;;5.30;3.87;;;;;;;;;;4293866;33;20052;-80
2023/06/16 07:39:01;;;;;;;4.10;3.70;;;;;;;;;;4308347;33;20041;-81
2023/06/16 07:41:27;;;;;;;6.70;3.67;;;;;;;;;;4307442;33;20045;-80
2023/06/16 07:43:53;;;;;;;4.65;3.75;;;;;;;;;;4309768;33;20082;-83
2023/06/16 07:46:19;;;;;;;6.47;3.85;;;;;;;;;;4309423;33;20086;-81
2023/06/16 07:48:46;;;;;;;4.03;2.92;;;;;;;;;;4309745;33;20459;-83
2023/06/16 07:51:12;;;;;;;5.47;3.60;;;;;;;;;;4308875;33;20082;-78
2023/06/16 07:53:42;;;;;;;3.70;3.17;;;;;;;;;;4307173;33;20060;-89
2023/06/16 07:56:08;;;;;;;3.80;3.20;;;;;;;;;;4309597;33;20065;-79
2023/06/16 07:58:35;;;;;;;6.80;4.20;;;;;;;;;;4311441;33;20070;-79
2023/06/16 08:01:02;;;;;;;5.55;3.50;;;;;;;;;;4310486;33;20187;-81
2023/06/16 08:03:30;;;;;;;4.68;3.80;;;;;;;;;;4312136;33;20041;-80
2023/06/16 08:05:57;;;;;;;8.20;3.83;;;;;;;;;;4263198;33;20071;-80
2023/06/16 08:08:26;;;;;;;2.90;2.60;;;;;;;;;;4269199;33;20490;-78
2023/06/16 08:10:53;;;;;;;5.53;3.10;;;;;;;;;;4266555;33;20101;-79
2023/06/16 08:13:19;;;;;;;4.50;3.80;;;;;;;;;;4266660;33;20045;-80
2023/06/16 08:15:45;;;;;;;5.45;2.83;;;;;;;;;;4263974;33;20092;-78
2023/06/16 08:18:12;;;;;;;2.70;2.50;;;;;;;;;;4266556;33;20932;-83
2023/06/16 08:20:38;;;;;;;4.90;3.85;;;;;;;;;;4265501;33;20029;-80
2023/06/16 08:23:04;;;;;;;5.22;3.05;;;;;;;;;;4265492;33;20076;-80
2023/06/16 08:25:30;;;;;;;8.57;2.80;;;;;;;;;;4265171;33;20030;-78
2023/06/16 08:27:57;;;;;;;2.97;2.78;;;;;;;;;;4263922;33;20054;-77
2023/06/16 08:30:23;;;;;;;4.70;3.00;;;;;;;;;;4272325;33;20105;-80
2023/06/16 08:32:49;;;;;;;3.28;2.97;;;;;;;;;;4251017;33;20784;-79
2023/06/16 08:35:16;;;;;;;6.37;3.62;;;;;;;;;;4251990;33;20064;-80
2023/06/16 08:37:42;;;;;;;10.00;2.97;;;;;;;;;;4250763;33;20094;-79
2023/06/16 08:40:10;;;;;;;3.00;2.50;;;;;;;;;;4249670;33;20455;-78
2023/06/16 08:42:36;;;;;;;3.60;3.00;;;;;;;;;;4252003;33;20349;-80
2023/06/16 08:45:03;;;;;;;2.55;2.35;;;;;;;;;;4262562;33;20089;-78
2023/06/16 08:47:30;;;;;;;8.85;2.87;;;;;;;;;;4266265;33;20038;-81
2023/06/16 08:49:56;;;;;;;5.60;2.90;;;;;;;;;;4265069;33;20056;-79
2023/06/16 08:52:26;;;;;;;6.40;2.90;;;;;;;;;;4264052;33;20037;-81
2023/06/16 08:54:57;;;;;;;6.45;3.40;;;;;;;;;;4265443;33;20063;-79
2023/06/16 08:57:23;;;;;;;3.83;2.72;;;;;;;;;;4266044;33;20050;-79
2023/06/16 08:59:57;;;;;;;9.60;2.78;;;;;;;;;;4261277;33;20145;-77
2023/06/16 09:02:24;;;;;;;5.85;3.45;;;;;;;;;;4279323;33;20087;-78
2023/06/16 09:04:53;;;;;;;10.68;2.80;;;;;;;;;;4309145;33;20029;-81
2023/06/16 09:07:20;;;;;;;3.10;2.80;;;;;;;;;;4311355;33;20069;-79
2023/06/16 09:09:46;;;;;;;7.05;4.07;;;;;;;;;;4306035;33;20367;-81
2023/06/16 09:12:12;;;;;;;8.20;3.65;;;;;;;;;;4310654;33;20523;-80
2023/06/16 09:14:48;;;;;;;4.95;3.03;;;;;;;;;;4310590;33;20132;-78
2023/06/16 09:17:18;;;;;;;9.90;2.75;;;;;;;;;;4308600;33;20048;-77
2023/06/16 09:19:47;;;;;;;8.48;3.20;;;;;;;;;;4310497;33;20049;-80
2023/06/16 09:22:18;;;;;;;5.78;2.92;;;;;;;;;;4299788;33;20067;-79
2023/06/16 09:24:45;;;;;;;3.92;3.08;;;;;;;;;;4310085;33;20130;-79
2023/06/16 09:27:12;;;;;;;4.85;2.62;;;;;;;;;;4310310;33;20041;-78
2023/06/16 09:29:38;;;;;;;5.53;4.10;;;;;;;;;;4310718;33;20383;-80
2023/06/16 09:32:06;;;;;;;3.72;3.30;;;;;;;;;;4293350;33;20059;-81
2023/06/16 09:34:32;;;;;;;13.20;3.75;;;;;;;;;;4292217;33;20061;-78
2023/06/16 09:36:59;;;;;;;5.10;3.72;;;;;;;;;;4283160;33;20104;-79
2023/06/16 09:39:25;;;;;;;12.10;3.72;;;;;;;;;;4294180;33;20033;-79
2023/06/16 09:41:53;;;;;;;3.10;2.80;;;;;;;;;;4294205;33;20042;-77
2023/06/16 09:44:21;;;;;;;6.18;3.20;;;;;;;;;;4293916;33;20056;-77
2023/06/16 09:46:49;;;;;;;9.27;2.72;;;;;;;;;;4293546;33;20376;-77
2023/06/16 09:49:19;;;;;;;2.87;2.60;;;;;;;;;;4294641;33;20065;-78
2023/06/16 09:51:52;;;;;;;2.75;2.50;;;;;;;;;;4293808;33;20053;-79
2023/06/16 09:54:19;;;;;;;3.67;2.97;;;;;;;;;;4275504;33;20181;-80
2023/06/16 09:56:46;;;;;;;4.65;2.50;;;;;;;;;;4261418;33;20524;-79
2023/06/16 09:59:12;;;;;;;3.97;3.15;;;;;;;;;;4263843;33;20085;-79
2023/06/16 10:01:40;;;;;;;12.27;4.20;;;;;;;;;;4261650;33;20075;-79
2023/06/16 10:04:08;;;;;;;9.35;3.12;;;;;;;;;;4267695;33;20037;-90
2023/06/16 10:06:40;;;;;;;8.40;3.30;;;;;;;;;;4265091;33;20454;-85
2023/06/16 10:09:07;;;;;;;6.37;3.50;;;;;;;;;;4264454;33;20045;-85
2023/06/16 10:11:34;;;;;;;3.20;2.60;;;;;;;;;;4266583;33;20054;-86
2023/06/16 10:14:07;;;;;;;3.08;2.37;;;;;;;;;;4271792;33;20474;-85
2023/06/16 10:16:36;;;;;;;5.72;2.60;;;;;;;;;;4277212;33;20069;-85
2023/06/16 10:19:04;;;;;;;4.80;3.00;;;;;;;;;;4270534;33;20193;-83
2023/06/16 10:21:31;;;;;;;10.43;3.08;;;;;;;;;;4264980;33;20046;-83
2023/06/16 10:23:57;;;;;;;2.85;2.65;;;;;;;;;;4251499;33;20038;-86
2023/06/16 10:26:24;;;;;;;9.68;2.97;;;;;;;;;;4263727;33;20067;-84
2023/06/16 10:28:51;;;;;;;2.62;2.42;;;;;;;;;;4292759;33;20043;-88
2023/06/16 10:31:18;;;;;;;3.95;2.80;;;;;;;;;;4292708;33;20041;-82
2023/06/16 10:33:50;;;;;;;2.83;2.62;;;;;;;;;;4295931;33;20071;-84
2023/06/16 10:36:20;;;;;;;9.05;3.20;;;;;;;;;;4293712;33;20059;-84
2023/06/16 10:38:56;;;;;;;4.25;2.80;;;;;;;;;;4291592;33;20093;-85
2023/06/16 10:41:22;;;;;;;4.53;2.90;;;;;;;;;;4291387;33;20080;-87
2023/06/16 10:43:49;;;;;;;6.28;2.30;;;;;;;;;;4293479;33;20052;-87
2023/06/16 10:46:16;;;;;;;7.93;2.62;;;;;;;;;;4293699;33;20045;-85
2023/06/16 10:49:09;;;;;;;3.80;2.67;;;;;;;;;;4294706;33;20627;-87
2023/06/16 10:51:40;;;;;;;6.28;5.18;;;;;;;;;;4296034;33;20469;-86
2023/06/16 10:54:09;;;;;;;11.57;5.35;;;;;;;;;;4271593;33;20041;-81
2023/06/16 10:56:54;;;;;;;5.72;3.80;;;;;;;;;;4294832;33;20115;-85
2023/06/16 10:59:22;;;;;;;7.62;3.22;;;;;;;;;;4290286;33;20225;-81
2023/06/16 11:01:48;;;;;;;3.42;2.80;;;;;;;;;;4461094;27;20464;-89
2023/06/16 11:04:14;;;;;;;3.40;3.10;;;;;;;;;;4338581;33;20021;-86
2023/06/16 11:06:59;;;;;;;3.20;2.90;;;;;;;;;;4328661;33;20067;-79
2023/06/16 11:09:31;;;;;;;3.35;3.00;;;;;;;;;;4341770;33;20032;-91
2023/06/16 11:11:58;;;;;;;6.18;3.40;;;;;;;;;;4338162;33;20096;-89
2023/06/16 11:14:25;;;;;;;4.22;3.20;;;;;;;;;;4335955;33;20059;-78
2023/06/16 11:16:51;;;;;;;6.40;3.50;;;;;;;;;;4333113;33;20060;-83
2023/06/16 11:19:18;;;;;;;3.90;3.37;;;;;;;;;;4321278;33;20199;-88
2023/06/16 11:21:45;;;;;;;8.32;3.75;;;;;;;;;;4319351;33;20648;-91
2023/06/16 11:24:12;;;;;;;10.48;3.53;;;;;;;;;;4322148;33;20040;-90
2023/06/16 11:26:38;;;;;;;7.87;3.65;;;;;;;;;;4343561;33;20089;-90
2023/06/16 11:29:05;;;;;;;10.75;3.50;;;;;;;;;;4350471;33;20078;-90
2023/06/16 11:31:35;;;;;;;14.93;3.50;;;;;;;;;;4353252;32;20457;-88
2023/06/16 11:34:03;;;;;;;8.98;4.00;;;;;;;;;;4323017;33;20047;-90
2023/06/16 11:36:29;;;;;;;3.58;3.03;;;;;;;;;;4323514;33;20044;-92
2023/06/16 11:38:55;;;;;;;9.70;3.90;;;;;;;;;;4323745;33;20040;-83
2023/06/16 11:41:27;;;;;;;10.07;3.67;;;;;;;;;;4325719;33;20108;-88
2023/06/16 11:43:53;;;;;;;4.22;3.80;;;;;;;;;;4312789;33;20976;-81
2023/06/16 11:46:21;;;;;;;6.97;4.03;;;;;;;;;;4307946;33;20060;-82
2023/06/16 11:48:47;;;;;;;4.32;3.62;;;;;;;;;;4308504;33;20115;-80
2023/06/16 11:51:14;;;;;;;4.40;3.95;;;;;;;;;;4305900;33;20183;-82
2023/06/16 11:53:40;;;;;;;10.55;3.40;;;;;;;;;;4313486;33;20075;-89
2023/06/16 11:56:07;;;;;;;3.90;3.33;;;;;;;;;;4311356;33;20135;-84
2023/06/16 11:58:33;;;;;;;6.10;4.18;;;;;;;;;;4310563;33;20058;-86
2023/06/16 12:01:01;;;;;;;6.55;3.95;;;;;;;;;;4306120;33;20115;-81
2023/06/16 12:03:33;;;;;;;8.23;3.90;;;;;;;;;;4298338;33;20044;-86
2023/06/16 12:06:01;;;;;;;5.22;4.30;;;;;;;;;;4298798;33;20048;-83
2023/06/16 12:08:34;;;;;;;6.12;4.12;;;;;;;;;;4308758;33;20646;-86
2023/06/16 12:11:01;;;;;;;4.40;4.00;;;;;;;;;;4308736;33;20120;-79
2023/06/16 12:13:29;;;;;;;10.48;4.28;;;;;;;;;;4308897;33;20467;-87
2023/06/16 12:15:55;;;;;;;6.65;5.50;;;;;;;;;;4307440;33;20083;-83
2023/06/16 12:18:22;;;;;;;16.70;4.70;;;;;;;;;;4306159;33;20460;-81
2023/06/16 12:20:48;;;;;;;3.90;3.58;;;;;;;;;;4297544;33;20045;-80
2023/06/16 12:23:14;;;;;;;4.60;3.70;;;;;;;;;;4292888;33;20075;-80
2023/06/16 12:25:40;;;;;;;6.57;3.97;;;;;;;;;;4303965;33;20070;-80
2023/06/16 12:28:08;;;;;;;5.00;3.72;;;;;;;;;;4298135;33;20100;-82
2023/06/16 12:30:34;;;;;;;5.43;3.60;;;;;;;;;;4293167;33;20419;-82
2023/06/16 12:33:12;;;;;;;8.07;3.75;;;;;;;;;;4288600;33;20402;-82
2023/06/16 12:35:40;;;;;;;8.20;3.42;;;;;;;;;;4297711;33;20115;-84
2023/06/16 12:38:06;;;;;;;4.50;3.95;;;;;;;;;;4308759;33;20704;-81
2023/06/16 12:40:32;;;;;;;5.45;3.60;;;;;;;;;;4313043;33;20551;-80
2023/06/16 12:43:17;;;;;;;5.95;4.37;;;;;;;;;;4335615;32;20245;-79
2023/06/16 12:45:43;;;;;;;6.47;3.83;;;;;;;;;;4335686;33;20033;-81
2023/06/16 12:48:09;;;;;;;13.82;3.80;;;;;;;;;;4348409;32;20036;-81
2023/06/16 12:50:35;;;;;;;4.22;3.40;;;;;;;;;;4350605;32;20110;-86
2023/06/16 12:53:01;;;;;;;6.53;3.50;;;;;;;;;;4335934;32;20044;-82
2023/06/16 12:55:28;;;;;;;4.00;3.58;;;;;;;;;;4336682;32;20092;-81
2023/06/16 12:57:54;;;;;;;6.43;3.62;;;;;;;;;;4331223;33;20464;-82
2023/06/16 13:00:20;;;;;;;4.03;3.50;;;;;;;;;;4343195;32;20191;-86
2023/06/16 13:02:48;;;;;;;4.07;3.67;;;;;;;;;;4333715;33;20052;-88
2023/06/16 13:05:15;;;;;;;3.92;3.53;;;;;;;;;;4328726;33;20060;-88
2023/06/16 13:07:41;;;;;;;5.68;3.28;;;;;;;;;;4345515;32;20413;-87
2023/06/16 13:10:07;;;;;;;13.48;4.20;;;;;;;;;;4347778;32;20257;-86
2023/06/16 13:12:33;;;;;;;9.20;3.80;;;;;;;;;;4342081;33;20170;-83
2023/06/16 13:15:00;;;;;;;4.50;3.72;;;;;;;;;;4344495;32;20044;-81
2023/06/16 13:17:27;;;;;;;21.60;3.90;;;;;;;;;;4338057;32;20031;-81
2023/06/16 13:19:53;;;;;;;5.18;3.78;;;;;;;;;;4356245;32;20195;-87
2023/06/16 13:22:19;;;;;;;8.05;3.78;;;;;;;;;;4365604;32;20044;-85
2023/06/16 13:24:45;;;;;;;6.22;3.95;;;;;;;;;;4354516;32;20068;-84
2023/06/16 13:27:11;;;;;;;4.30;3.55;;;;;;;;;;4353672;32;20459;-84
2023/06/16 13:29:37;;;;;;;12.88;3.50;;;;;;;;;;4353754;32;20083;-89
2023/06/16 13:32:04;;;;;;;4.47;3.53;;;;;;;;;;4362056;32;20113;-85
2023/06/16 13:34:30;;;;;;;3.70;3.35;;;;;;;;;;4336578;33;20424;-82
2023/06/16 13:36:56;;;;;;;6.70;3.65;;;;;;;;;;4337603;32;20039;-87
2023/06/16 13:39:23;;;;;;;4.35;3.95;;;;;;;;;;4336853;33;20039;-81
2023/06/16 13:41:49;;;;;;;12.43;3.80;;;;;;;;;;4334726;33;20155;-88
2023/06/16 13:44:15;;;;;;;14.68;3.97;;;;;;;;;;4337681;33;20065;-85
2023/06/16 13:46:41;;;;;;;5.75;3.60;;;;;;;;;;4337867;33;20040;-82
2023/06/16 13:49:08;;;;;;;4.05;3.70;;;;;;;;;;4346819;32;20494;-86
2023/06/16 13:51:34;;;;;;;4.78;3.65;;;;;;;;;;4334532;33;20058;-80
2023/06/16 13:54:00;;;;;;;5.82;3.47;;;;;;;;;;4337620;33;20448;-83
2023/06/16 13:56:26;;;;;;;5.15;4.18;;;;;;;;;;4336509;33;20127;-83
2023/06/16 13:58:53;;;;;;;5.62;3.50;;;;;;;;;;4321845;33;20073;-83
2023/06/16 14:01:19;;;;;;;11.27;3.55;;;;;;;;;;4320761;33;20040;-78
2023/06/16 14:03:46;;;;;;;5.53;3.70;;;;;;;;;;4322693;33;20052;-84
2023/06/16 14:06:13;;;;;;;6.25;3.40;;;;;;;;;;4320401;33;20037;-80
2023/06/16 14:08:39;;;;;;;6.90;3.28;;;;;;;;;;4279463;33;20075;-85
2023/06/16 14:11:05;;;;;;;9.65;4.10;;;;;;;;;;4276858;33;20059;-86
2023/06/16 14:13:32;;;;;;;10.55;4.60;;;;;;;;;;4270408;33;20121;-82
2023/06/16 14:15:58;;;;;;;7.93;4.05;;;;;;;;;;4274556;33;20049;-85
2023/06/16 14:18:25;;;;;;;13.60;5.18;;;;;;;;;;4280862;33;20059;-88
2023/06/16 14:20:51;;;;;;;4.43;3.80;;;;;;;;;;4286478;33;20084;-87
2023/06/16 14:23:17;;;;;;;4.07;3.78;;;;;;;;;;4294328;33;20462;-87
2023/06/16 14:25:44;;;;;;;5.68;3.75;;;;;;;;;;4288938;33;20050;-82
2023/06/16 14:28:14;;;;;;;3.78;3.47;;;;;;;;;;4279993;33;20037;-83
2023/06/16 14:30:40;;;;;;;8.00;4.00;;;;;;;;;;4266243;33;20026;-84
2023/06/16 14:33:08;;;;;;;5.72;3.42;;;;;;;;;;4281379;33;20073;-87
2023/06/16 14:35:34;;;;;;;8.30;4.05;;;;;;;;;;4282135;33;20063;-80
2023/06/16 14:38:00;;;;;;;8.85;3.83;;;;;;;;;;4272203;33;20570;-81
2023/06/16 14:40:26;;;;;;;5.40;3.47;;;;;;;;;;4251403;33;20068;-80
2023/06/16 14:42:53;;;;;;;8.52;4.40;;;;;;;;;;4226367;33;20080;-87
2023/06/16 14:45:19;;;;;;;5.20;3.92;;;;;;;;;;4239389;33;20051;-90
2023/06/16 14:47:45;;;;;;;5.40;4.12;;;;;;;;;;4248654;33;20149;-89
2023/06/16 14:50:12;;;;;;;4.78;3.60;;;;;;;;;;4255695;33;20105;-84
2023/06/16 14:52:38;;;;;;;7.12;3.60;;;;;;;;;;4241697;33;20047;-86
2023/06/16 14:55:06;;;;;;;4.18;3.83;;;;;;;;;;4235203;33;20334;-87
2023/06/16 14:57:32;;;;;;;10.70;4.10;;;;;;;;;;4259020;33;20086;-84
2023/06/16 14:59:58;;;;;;;9.93;4.15;;;;;;;;;;4262375;33;20176;-85
2023/06/16 15:02:24;;;;;;;6.43;4.20;;;;;;;;;;4275203;33;20034;-87
2023/06/16 15:04:50;;;;;;;13.65;5.57;;;;;;;;;;4256805;33;20064;-86
2023/06/16 15:07:17;;;;;;;12.27;5.50;;;;;;;;;;4273875;33;20212;-84
2023/06/16 15:09:44;;;;;;;9.40;4.68;;;;;;;;;;4269553;33;20083;-83
2023/06/16 15:12:11;;;;;;;5.10;4.70;;;;;;;;;;4287693;33;20103;-88
2023/06/16 15:14:37;;;;;;;13.00;5.70;;;;;;;;;;4292440;33;20418;-86
2023/06/16 15:17:05;;;;;;;7.25;5.03;;;;;;;;;;4285675;33;20045;-80
2023/06/16 15:19:31;;;;;;;7.90;5.53;;;;;;;;;;4290974;33;20029;-78
2023/06/16 15:21:57;;;;;;;6.97;4.82;;;;;;;;;;4318230;33;20087;-78
2023/06/16 15:24:23;;;;;;;7.65;4.47;;;;;;;;;;4317713;33;20071;-77
2023/06/16 15:26:50;;;;;;;5.65;4.90;;;;;;;;;;4320049;33;20495;-78
2023/06/16 15:29:16;;;;;;;11.57;4.55;;;;;;;;;;4321080;33;20041;-78
2023/06/16 15:31:43;;;;;;;7.87;4.05;;;;;;;;;;4318692;33;20070;-78
2023/06/16 15:34:10;;;;;;;6.35;4.60;;;;;;;;;;4322486;33;20181;-80
2023/06/16 15:36:36;;;;;;;6.55;5.53;;;;;;;;;;4313070;33;20036;-80
2023/06/16 15:39:02;;;;;;;4.60;4.25;;;;;;;;;;4335482;33;20040;-81
2023/06/16 15:41:28;;;;;;;7.70;5.57;;;;;;;;;;4304892;33;20044;-78
2023/06/16 15:43:54;;;;;;;12.05;4.78;;;;;;;;;;4305582;33;20501;-79
2023/06/16 15:46:21;;;;;;;4.68;4.28;;;;;;;;;;4307630;33;20644;-79
2023/06/16 15:48:47;;;;;;;12.23;4.85;;;;;;;;;;4307294;33;20098;-79
2023/06/16 15:51:13;;;;;;;4.68;4.37;;;;;;;;;;4305043;33;20416;-77
2023/06/16 15:53:39;;;;;;;10.70;5.82;;;;;;;;;;4307980;33;20064;-78
2023/06/16 15:56:06;;;;;;;5.57;4.55;;;;;;;;;;4303880;33;20056;-79
2023/06/16 15:58:31;;;;;;;6.00;3.80;;;;;;;;;;4301862;33;20067;-78
2023/06/16 16:00:58;;;;;;;11.90;5.00;;;;;;;;;;4285387;33;20057;-79
2023/06/16 16:03:24;;;;;;;12.88;4.75;;;;;;;;;;4276747;33;20061;-79
2023/06/16 16:05:50;;;;;;;5.68;4.68;;;;;;;;;;4277722;33;20408;-78
2023/06/16 16:08:17;;;;;;;8.93;4.95;;;;;;;;;;4277322;33;20173;-79
2023/06/16 16:10:44;;;;;;;8.98;5.53;;;;;;;;;;4277376;33;20335;-78
2023/06/16 16:13:10;;;;;;;5.37;4.87;;;;;;;;;;4262947;33;20042;-80
2023/06/16 16:15:37;;;;;;;7.62;5.45;;;;;;;;;;4263138;33;20052;-78
2023/06/16 16:18:03;;;;;;;5.80;4.85;;;;;;;;;;4264075;33;20034;-77
2023/06/16 16:20:29;;;;;;;9.32;4.37;;;;;;;;;;4265668;33;20042;-78
2023/06/16 16:22:55;;;;;;;9.02;4.10;;;;;;;;;;4266966;33;20071;-78
2023/06/16 16:25:22;;;;;;;6.10;4.65;;;;;;;;;;4287339;33;20048;-78
2023/06/16 16:27:48;;;;;;;5.57;4.72;;;;;;;;;;4295589;33;20528;-78
2023/06/16 16:30:15;;;;;;;8.40;4.22;;;;;;;;;;4295275;33;20063;-78
2023/06/16 16:32:41;;;;;;;4.37;4.07;;;;;;;;;;4293631;33;20041;-79
2023/06/16 16:35:07;;;;;;;8.65;5.85;;;;;;;;;;4294401;33;20470;-78
2023/06/16 16:37:33;;;;;;;5.25;4.57;;;;;;;;;;4295401;33;20030;-79